sensor_id;sensor_type;location;lat;lon;timestamp;pressure;altitude;pressure_sealevel;temperature;humidity
22261;BME280;11299;43.202;27.920;2023-05-23T00:00:58;-21229.03;;;17.36;100.00
22261;BME280;11299;43.202;27.920;2023-05-23T00:03:25;-21227.78;;;17.32;100.00
22261;BME280;11299;43.202;27.920;2023-05-23T00:05:50;-21170.22;;;15.47;100.00
22261;BME280;11299;43.202;27.920;2023-05-23T00:08:16;-21234.06;;;17.52;100.00
22261;BME280;11299;43.202;27.920;2023-05-23T00:10:42;-21235.63;;;17.57;100.00
22261;BME280;11299;43.202;27.920;2023-05-23T00:13:08;-21235.63;;;17.57;100.00
22261;BME280;11299;43.202;27.920;2023-05-23T00:15:36;-21241.72;;;17.76;100.00
22261;BME280;11299;43.202;27.920;2023-05-23T00:18:02;-21234.69;;;17.54;100.00
22261;BME280;11299;43.202;27.920;2023-05-23T00:20:27;-21220.91;;;17.10;100.00
22261;BME280;11299;43.202;27.920;2023-05-23T00:22:54;-21236.88;;;17.61;100.00
22261;BME280;11299;43.202;27.920;2023-05-23T00:25:23;-21235.78;;;17.57;100.00
22261;BME280;11299;43.202;27.920;2023-05-23T00:27:49;-21241.25;;;17.75;100.00
22261;BME280;11299;43.202;27.920;2023-05-23T00:30:15;-21235.16;;;17.55;100.00
22261;BME280;11299;43.202;27.920;2023-05-23T00:32:40;-21208.25;;;16.69;100.00
22261;BME280;11299;43.202;27.920;2023-05-23T00:35:06;-21239.38;;;17.69;100.00
22261;BME280;11299;43.202;27.920;2023-05-23T00:37:32;-21243.44;;;17.82;100.00
22261;BME280;11299;43.202;27.920;2023-05-23T00:39:58;-21243.59;;;17.82;100.00
22261;BME280;11299;43.202;27.920;2023-05-23T00:42:24;-21211.84;;;16.80;100.00
22261;BME280;11299;43.202;27.920;2023-05-23T00:44:50;-21243.59;;;17.82;100.00
22261;BME280;11299;43.202;27.920;2023-05-23T00:47:15;-21227.50;;;17.31;100.00
22261;BME280;11299;43.202;27.920;2023-05-23T00:49:42;-21241.88;;;17.77;100.00
22261;BME280;11299;43.202;27.920;2023-05-23T00:52:08;-21239.38;;;17.69;100.00
22261;BME280;11299;43.202;27.920;2023-05-23T00:54:35;-21249.38;;;18.01;100.00
22261;BME280;11299;43.202;27.920;2023-05-23T00:57:01;-21246.56;;;17.92;100.00
22261;BME280;11299;43.202;27.920;2023-05-23T00:59:29;-21247.81;;;17.96;100.00
22261;BME280;11299;43.202;27.920;2023-05-23T01:01:55;-21239.84;;;17.70;100.00
22261;BME280;11299;43.202;27.920;2023-05-23T01:04:21;-21249.84;;;18.03;100.00
22261;BME280;11299;43.202;27.920;2023-05-23T01:06:55;-21245.16;;;17.88;100.00
22261;BME280;11299;43.202;27.920;2023-05-23T01:09:21;-21253.28;;;18.14;100.00
22261;BME280;11299;43.202;27.920;2023-05-23T01:14:50;-21253.59;;;18.15;100.00
22261;BME280;11299;43.202;27.920;2023-05-23T01:17:26;-21253.13;;;18.13;100.00
22261;BME280;11299;43.202;27.920;2023-05-23T01:20:02;-21252.19;;;18.10;100.00
22261;BME280;11299;43.202;27.920;2023-05-23T01:25:27;-21252.50;;;18.11;100.00
22261;BME280;11299;43.202;27.920;2023-05-23T01:27:57;-21246.56;;;17.92;100.00
22261;BME280;11299;43.202;27.920;2023-05-23T01:30:26;-21250.00;;;18.03;100.00
22261;BME280;11299;43.202;27.920;2023-05-23T01:32:55;-21234.69;;;17.54;100.00
22261;BME280;11299;43.202;27.920;2023-05-23T01:35:25;-21250.63;;;18.05;100.00
22261;BME280;11299;43.202;27.920;2023-05-23T01:37:55;-21245.63;;;17.89;100.00
22261;BME280;11299;43.202;27.920;2023-05-23T01:40:23;-21224.97;;;17.23;100.00
22261;BME280;11299;43.202;27.920;2023-05-23T01:42:50;-21233.91;;;17.51;100.00
22261;BME280;11299;43.202;27.920;2023-05-23T01:45:16;-21239.69;;;17.70;100.00
22261;BME280;11299;43.202;27.920;2023-05-23T01:47:42;-21251.09;;;18.07;100.00
22261;BME280;11299;43.202;27.920;2023-05-23T01:50:09;-21247.50;;;17.95;100.00
22261;BME280;11299;43.202;27.920;2023-05-23T01:52:35;-21252.97;;;18.13;100.00
22261;BME280;11299;43.202;27.920;2023-05-23T01:55:04;-21249.06;;;18.00;100.00
22261;BME280;11299;43.202;27.920;2023-05-23T01:57:35;-21227.16;;;17.30;100.00
22261;BME280;11299;43.202;27.920;2023-05-23T02:00:03;-21244.69;;;17.86;100.00
22261;BME280;11299;43.202;27.920;2023-05-23T02:02:31;-21245.31;;;17.88;100.00
22261;BME280;11299;43.202;27.920;2023-05-23T02:04:57;-21251.25;;;18.07;100.00
22261;BME280;11299;43.202;27.920;2023-05-23T02:07:22;-21245.31;;;17.88;100.00
22261;BME280;11299;43.202;27.920;2023-05-23T02:09:48;-21248.75;;;17.99;100.00
22261;BME280;11299;43.202;27.920;2023-05-23T02:12:14;-21231.38;;;17.43;100.00
22261;BME280;11299;43.202;27.920;2023-05-23T02:14:39;-21251.88;;;18.09;100.00
22261;BME280;11299;43.202;27.920;2023-05-23T02:17:07;-21247.19;;;17.94;100.00
22261;BME280;11299;43.202;27.920;2023-05-23T02:19:35;-21252.50;;;18.11;100.00
22261;BME280;11299;43.202;27.920;2023-05-23T02:22:00;-21245.78;;;17.90;100.00
22261;BME280;11299;43.202;27.920;2023-05-23T02:24:26;-21243.91;;;17.83;100.00
22261;BME280;11299;43.202;27.920;2023-05-23T02:26:52;-21240.63;;;17.73;100.00
22261;BME280;11299;43.202;27.920;2023-05-23T02:29:17;-21222.97;;;17.16;100.00
22261;BME280;11299;43.202;27.920;2023-05-23T02:31:43;-21240.00;;;17.71;100.00
22261;BME280;11299;43.202;27.920;2023-05-23T02:34:09;-21249.06;;;18.00;100.00
22261;BME280;11299;43.202;27.920;2023-05-23T02:36:34;-21245.94;;;17.90;100.00
22261;BME280;11299;43.202;27.920;2023-05-23T02:39:02;-21249.84;;;18.03;100.00
22261;BME280;11299;43.202;27.920;2023-05-23T02:41:27;-21250.16;;;18.04;100.00
22261;BME280;11299;43.202;27.920;2023-05-23T02:43:53;-21247.50;;;17.95;100.00
22261;BME280;11299;43.202;27.920;2023-05-23T02:46:18;-21244.06;;;17.84;100.00
22261;BME280;11299;43.202;27.920;2023-05-23T02:48:44;-21238.59;;;17.66;100.00
22261;BME280;11299;43.202;27.920;2023-05-23T02:51:09;-21244.69;;;17.86;100.00
22261;BME280;11299;43.202;27.920;2023-05-23T02:53:35;-21234.69;;;17.54;100.00
22261;BME280;11299;43.202;27.920;2023-05-23T02:56:00;-21245.00;;;17.87;100.00
22261;BME280;11299;43.202;27.920;2023-05-23T02:58:26;-21235.16;;;17.55;100.00
22261;BME280;11299;43.202;27.920;2023-05-23T03:00:51;-21240.94;;;17.74;100.00
22261;BME280;11299;43.202;27.920;2023-05-23T03:03:16;-21249.69;;;18.02;100.00
22261;BME280;11299;43.202;27.920;2023-05-23T03:05:42;-21230.31;;;17.40;100.00
22261;BME280;11299;43.202;27.920;2023-05-23T03:08:08;-21248.75;;;17.99;100.00
22261;BME280;11299;43.202;27.920;2023-05-23T03:10:33;-21253.44;;;18.14;100.00
22261;BME280;11299;43.202;27.920;2023-05-23T03:12:59;-21247.66;;;17.96;100.00
22261;BME280;11299;43.202;27.920;2023-05-23T03:15:24;-21252.19;;;18.10;100.00
22261;BME280;11299;43.202;27.920;2023-05-23T03:17:50;-21255.47;;;18.21;100.00
22261;BME280;11299;43.202;27.920;2023-05-23T03:20:15;-21248.75;;;17.99;100.00
22261;BME280;11299;43.202;27.920;2023-05-23T03:22:40;-21250.63;;;18.05;100.00
22261;BME280;11299;43.202;27.920;2023-05-23T03:25:09;-21257.97;;;18.29;100.00
22261;BME280;11299;43.202;27.920;2023-05-23T03:27:35;-21256.88;;;18.25;100.00
22261;BME280;11299;43.202;27.920;2023-05-23T03:30:02;-21257.81;;;18.28;100.00
22261;BME280;11299;43.202;27.920;2023-05-23T03:32:27;-21257.50;;;18.27;100.00
22261;BME280;11299;43.202;27.920;2023-05-23T03:34:53;-21257.50;;;18.27;100.00
22261;BME280;11299;43.202;27.920;2023-05-23T03:37:18;-21260.00;;;18.35;100.00
22261;BME280;11299;43.202;27.920;2023-05-23T03:39:43;-21256.72;;;18.25;100.00
22261;BME280;11299;43.202;27.920;2023-05-23T03:42:09;-21262.81;;;18.44;100.00
22261;BME280;11299;43.202;27.920;2023-05-23T03:44:35;-21265.63;;;18.53;100.00
22261;BME280;11299;43.202;27.920;2023-05-23T03:47:00;-21267.97;;;18.61;100.00
22261;BME280;11299;43.202;27.920;2023-05-23T03:49:26;-21260.78;;;18.38;100.00
22261;BME280;11299;43.202;27.920;2023-05-23T03:51:51;-21270.47;;;18.69;100.00
22261;BME280;11299;43.202;27.920;2023-05-23T03:54:17;-21270.63;;;18.69;100.00
22261;BME280;11299;43.202;27.920;2023-05-23T03:56:42;-21267.81;;;18.60;100.00
22261;BME280;11299;43.202;27.920;2023-05-23T03:59:08;-21270.31;;;18.68;100.00
22261;BME280;11299;43.202;27.920;2023-05-23T04:01:33;-21272.34;;;18.75;100.00
22261;BME280;11299;43.202;27.920;2023-05-23T04:03:58;-21262.03;;;18.42;100.00
22261;BME280;11299;43.202;27.920;2023-05-23T04:06:24;-21272.47;;;18.75;100.00
22261;BME280;11299;43.202;27.920;2023-05-23T04:08:50;-21271.88;;;18.73;100.00
22261;BME280;11299;43.202;27.920;2023-05-23T04:11:15;-21272.81;;;18.76;100.00
22261;BME280;11299;43.202;27.920;2023-05-23T04:13:41;-21273.88;;;18.80;100.00
22261;BME280;11299;43.202;27.920;2023-05-23T04:16:09;-21275.94;;;18.87;100.00
22261;BME280;11299;43.202;27.920;2023-05-23T04:18:34;-21273.88;;;18.80;100.00
22261;BME280;11299;43.202;27.920;2023-05-23T04:21:03;-21268.75;;;18.63;100.00
22261;BME280;11299;43.202;27.920;2023-05-23T04:23:28;-21269.38;;;18.65;100.00
22261;BME280;11299;43.202;27.920;2023-05-23T04:25:54;-21275.44;;;18.85;100.00
22261;BME280;11299;43.202;27.920;2023-05-23T04:28:22;-21278.56;;;18.95;100.00
22261;BME280;11299;43.202;27.920;2023-05-23T04:30:47;-21276.56;;;18.89;100.00
22261;BME280;11299;43.202;27.920;2023-05-23T04:33:14;-21279.97;;;19.00;100.00
22261;BME280;11299;43.202;27.920;2023-05-23T04:35:39;-21275.94;;;18.87;100.00
22261;BME280;11299;43.202;27.920;2023-05-23T04:38:05;-21283.56;;;19.11;100.00
22261;BME280;11299;43.202;27.920;2023-05-23T04:40:30;-21280.28;;;19.01;100.00
22261;BME280;11299;43.202;27.920;2023-05-23T04:42:56;-21274.06;;;18.81;100.00
22261;BME280;11299;43.202;27.920;2023-05-23T04:45:22;-21275.94;;;18.87;100.00
22261;BME280;11299;43.202;27.920;2023-05-23T04:47:47;-21277.47;;;18.92;100.00
22261;BME280;11299;43.202;27.920;2023-05-23T04:50:13;-21278.72;;;18.96;100.00
22261;BME280;11299;43.202;27.920;2023-05-23T04:52:42;-21274.50;;;18.82;100.00
22261;BME280;11299;43.202;27.920;2023-05-23T04:55:08;-21275.31;;;18.85;100.00
22261;BME280;11299;43.202;27.920;2023-05-23T04:57:34;-21280.59;;;19.02;100.00
22261;BME280;11299;43.202;27.920;2023-05-23T04:59:59;-21279.50;;;18.98;100.00
22261;BME280;11299;43.202;27.920;2023-05-23T05:02:25;-21282.00;;;19.06;100.00
22261;BME280;11299;43.202;27.920;2023-05-23T05:04:52;-21284.66;;;19.15;100.00
22261;BME280;11299;43.202;27.920;2023-05-23T05:07:17;-21289.34;;;19.30;100.00
22261;BME280;11299;43.202;27.920;2023-05-23T05:09:42;-21291.69;;;19.37;100.00
22261;BME280;11299;43.202;27.920;2023-05-23T05:12:08;-21281.84;;;19.06;100.00
22261;BME280;11299;43.202;27.920;2023-05-23T05:14:33;-21293.88;;;19.44;100.00
22261;BME280;11299;43.202;27.920;2023-05-23T05:16:59;-21295.28;;;19.49;100.00
22261;BME280;11299;43.202;27.920;2023-05-23T05:19:26;-21296.22;;;19.52;100.00
22261;BME280;11299;43.202;27.920;2023-05-23T05:21:52;-21301.53;;;19.69;100.00
22261;BME280;11299;43.202;27.920;2023-05-23T05:24:17;-21304.47;;;19.79;100.00
22261;BME280;11299;43.202;27.920;2023-05-23T05:26:45;-21300.13;;;19.64;100.00
22261;BME280;11299;43.202;27.920;2023-05-23T05:29:11;-21306.81;;;19.86;100.00
22261;BME280;11299;43.202;27.920;2023-05-23T05:31:37;-21309.31;;;19.94;100.00
22261;BME280;11299;43.202;27.920;2023-05-23T05:34:03;-21309.78;;;19.96;100.00
22261;BME280;11299;43.202;27.920;2023-05-23T05:36:28;-21306.19;;;19.84;100.00
22261;BME280;11299;43.202;27.920;2023-05-23T05:38:54;-21309.31;;;19.94;100.00
22261;BME280;11299;43.202;27.920;2023-05-23T05:41:19;-21309.00;;;19.93;100.00
22261;BME280;11299;43.202;27.920;2023-05-23T05:43:46;-21313.22;;;20.07;100.00
22261;BME280;11299;43.202;27.920;2023-05-23T05:46:11;-21288.09;;;19.26;100.00
22261;BME280;11299;43.202;27.920;2023-05-23T05:48:37;-21308.06;;;19.90;100.00
22261;BME280;11299;43.202;27.920;2023-05-23T05:51:02;-21308.06;;;19.90;100.00
22261;BME280;11299;43.202;27.920;2023-05-23T05:53:28;-21311.19;;;20.00;100.00
22261;BME280;11299;43.202;27.920;2023-05-23T05:55:53;-21317.44;;;20.20;100.00
22261;BME280;11299;43.202;27.920;2023-05-23T05:58:19;-21318.38;;;20.23;100.00
22261;BME280;11299;43.202;27.920;2023-05-23T06:00:45;-21319.78;;;20.28;100.00
22261;BME280;11299;43.202;27.920;2023-05-23T06:03:11;-21316.19;;;20.16;100.00
22261;BME280;11299;43.202;27.920;2023-05-23T06:05:37;-21326.47;;;20.49;100.00
22261;BME280;11299;43.202;27.920;2023-05-23T06:08:03;-21328.81;;;20.57;100.00
22261;BME280;11299;43.202;27.920;2023-05-23T06:10:29;-21314.94;;;20.12;100.00
22261;BME280;11299;43.202;27.920;2023-05-23T06:12:55;-21306.19;;;19.84;100.00
22261;BME280;11299;43.202;27.920;2023-05-23T06:15:20;-21339.56;;;20.92;100.00
22261;BME280;11299;43.202;27.920;2023-05-23T06:17:45;-21350.47;;;21.27;100.00
22261;BME280;11299;43.202;27.920;2023-05-23T06:20:11;-21352.34;;;21.33;100.00
22261;BME280;11299;43.202;27.920;2023-05-23T06:22:36;-21325.22;;;20.45;100.00
22261;BME280;11299;43.202;27.920;2023-05-23T06:25:02;-21359.50;;;21.56;100.00
22261;BME280;11299;43.202;27.920;2023-05-23T06:27:28;-21356.88;;;21.47;100.00
22261;BME280;11299;43.202;27.920;2023-05-23T06:29:53;-21364.19;;;21.71;100.00
22261;BME280;11299;43.202;27.920;2023-05-23T06:32:19;-21361.69;;;21.63;100.00
22261;BME280;11299;43.202;27.920;2023-05-23T06:34:44;-21327.41;;;20.52;100.00
22261;BME280;11299;43.202;27.920;2023-05-23T06:37:10;-21343.31;;;21.04;100.00
22261;BME280;11299;43.202;27.920;2023-05-23T06:39:35;-21346.44;;;21.14;100.00
22261;BME280;11299;43.202;27.920;2023-05-23T06:42:01;-21360.28;;;21.59;100.00
22261;BME280;11299;43.202;27.920;2023-05-23T06:44:26;-21369.94;;;21.90;100.00
22261;BME280;11299;43.202;27.920;2023-05-23T06:46:52;-21314.00;;;20.09;100.00
22261;BME280;11299;43.202;27.920;2023-05-23T06:49:22;-21365.28;;;21.75;100.00
22261;BME280;11299;43.202;27.920;2023-05-23T06:51:48;-21364.50;;;21.72;100.00
22261;BME280;11299;43.202;27.920;2023-05-23T06:54:13;-21365.75;;;21.76;100.00
22261;BME280;11299;43.202;27.920;2023-05-23T06:56:39;-21345.50;;;21.11;100.00
22261;BME280;11299;43.202;27.920;2023-05-23T06:59:04;-21358.44;;;21.52;100.00
22261;BME280;11299;43.202;27.920;2023-05-23T07:01:30;-21358.25;;;21.52;100.00
22261;BME280;11299;43.202;27.920;2023-05-23T07:03:55;-21338.00;;;20.87;100.00
22261;BME280;11299;43.202;27.920;2023-05-23T07:06:21;-21345.34;;;21.10;100.00
22261;BME280;11299;43.202;27.920;2023-05-23T07:08:46;-21359.38;;;21.56;100.00
22261;BME280;11299;43.202;27.920;2023-05-23T07:11:11;-21360.13;;;21.58;100.00
22261;BME280;11299;43.202;27.920;2023-05-23T07:13:37;-21359.81;;;21.57;100.00
22261;BME280;11299;43.202;27.920;2023-05-23T07:16:03;-21350.00;;;21.25;100.00
22261;BME280;11299;43.202;27.920;2023-05-23T07:18:28;-21341.28;;;20.97;100.00
22261;BME280;11299;43.202;27.920;2023-05-23T07:20:54;-21354.22;;;21.39;100.00
22261;BME280;11299;43.202;27.920;2023-05-23T07:23:22;-21348.63;;;21.21;100.00
22261;BME280;11299;43.202;27.920;2023-05-23T07:25:48;-21345.81;;;21.12;100.00
22261;BME280;11299;43.202;27.920;2023-05-23T07:28:14;-21347.84;;;21.18;100.00
22261;BME280;11299;43.202;27.920;2023-05-23T07:30:40;-21347.22;;;21.16;100.00
22261;BME280;11299;43.202;27.920;2023-05-23T07:33:06;-21287.16;;;19.23;100.00
22261;BME280;11299;43.202;27.920;2023-05-23T07:35:32;-21348.63;;;21.21;100.00
22261;BME280;11299;43.202;27.920;2023-05-23T07:37:57;-21336.59;;;20.82;100.00
22261;BME280;11299;43.202;27.920;2023-05-23T07:40:22;-21351.41;;;21.30;100.00
22261;BME280;11299;43.202;27.920;2023-05-23T07:42:48;-21331.47;;;20.66;100.00
22261;BME280;11299;43.202;27.920;2023-05-23T07:45:14;-21359.50;;;21.56;100.00
22261;BME280;11299;43.202;27.920;2023-05-23T07:47:40;-21355.16;;;21.42;100.00
22261;BME280;11299;43.202;27.920;2023-05-23T07:50:06;-21359.97;;;21.58;100.00
22261;BME280;11299;43.202;27.920;2023-05-23T07:52:32;-21357.66;;;21.50;100.00
22261;BME280;11299;43.202;27.920;2023-05-23T07:54:58;-21357.03;;;21.48;100.00
22261;BME280;11299;43.202;27.920;2023-05-23T07:57:24;-21357.03;;;21.48;100.00
22261;BME280;11299;43.202;27.920;2023-05-23T07:59:51;-21358.88;;;21.54;100.00
22261;BME280;11299;43.202;27.920;2023-05-23T08:02:16;-21362.63;;;21.66;100.00
22261;BME280;11299;43.202;27.920;2023-05-23T08:04:42;-21348.78;;;21.21;100.00
22261;BME280;11299;43.202;27.920;2023-05-23T08:07:08;-21319.63;;;20.27;100.00
22261;BME280;11299;43.202;27.920;2023-05-23T08:09:34;-21337.69;;;20.86;100.00
22261;BME280;11299;43.202;27.920;2023-05-23T08:12:00;-21324.59;;;20.43;100.00
22261;BME280;11299;43.202;27.920;2023-05-23T08:14:26;-21321.81;;;20.34;100.00
22261;BME280;11299;43.202;27.920;2023-05-23T08:16:51;-21317.13;;;20.19;100.00
22261;BME280;11299;43.202;27.920;2023-05-23T08:19:17;-21343.31;;;21.04;100.00
22261;BME280;11299;43.202;27.920;2023-05-23T08:21:42;-21350.16;;;21.26;100.00
22261;BME280;11299;43.202;27.920;2023-05-23T08:24:08;-21350.47;;;21.27;100.00
22261;BME280;11299;43.202;27.920;2023-05-23T08:26:33;-21352.34;;;21.33;100.00
22261;BME280;11299;43.202;27.920;2023-05-23T08:29:01;-21331.31;;;20.65;100.00
22261;BME280;11299;43.202;27.920;2023-05-23T08:31:29;-21351.09;;;21.29;100.00
22261;BME280;11299;43.202;27.920;2023-05-23T08:33:55;-21332.41;;;20.69;100.00
22261;BME280;11299;43.202;27.920;2023-05-23T08:36:21;-21288.72;;;19.28;100.00
22261;BME280;11299;43.202;27.920;2023-05-23T08:38:46;-21320.41;;;20.30;100.00
22261;BME280;11299;43.202;27.920;2023-05-23T08:41:18;-21335.22;;;20.78;100.00
22261;BME280;11299;43.202;27.920;2023-05-23T08:43:43;-21354.69;;;21.40;100.00
22261;BME280;11299;43.202;27.920;2023-05-23T08:46:10;-21356.72;;;21.47;100.00
22261;BME280;11299;43.202;27.920;2023-05-23T08:48:37;-21311.34;;;20.01;100.00
22261;BME280;11299;43.202;27.920;2023-05-23T08:51:03;-21381.63;;;22.27;100.00
22261;BME280;11299;43.202;27.920;2023-05-23T08:53:30;-21391.59;;;22.60;100.00
22261;BME280;11299;43.202;27.920;2023-05-23T08:55:57;-21387.69;;;22.47;100.00
22261;BME280;11299;43.202;27.920;2023-05-23T08:58:29;-21384.44;;;22.36;100.00
22261;BME280;11299;43.202;27.920;2023-05-23T09:00:54;-21377.72;;;22.15;100.00
22261;BME280;11299;43.202;27.920;2023-05-23T09:03:21;-21362.63;;;21.66;100.00
22261;BME280;11299;43.202;27.920;2023-05-23T09:05:48;-21358.44;;;21.52;100.00
22261;BME280;11299;43.202;27.920;2023-05-23T09:08:15;-21360.44;;;21.59;100.00
22261;BME280;11299;43.202;27.920;2023-05-23T09:10:41;-21355.94;;;21.44;100.00
22261;BME280;11299;43.202;27.920;2023-05-23T09:13:06;-21341.28;;;20.97;100.00
22261;BME280;11299;43.202;27.920;2023-05-23T09:15:34;-21339.25;;;20.91;100.00
22261;BME280;11299;43.202;27.920;2023-05-23T09:18:00;-21350.00;;;21.25;100.00
22261;BME280;11299;43.202;27.920;2023-05-23T09:20:28;-21340.97;;;20.96;100.00
22261;BME280;11299;43.202;27.920;2023-05-23T09:22:54;-21324.44;;;20.43;100.00
22261;BME280;11299;43.202;27.920;2023-05-23T09:25:20;-21356.09;;;21.45;100.00
22261;BME280;11299;43.202;27.920;2023-05-23T09:27:46;-21362.78;;;21.67;100.00
22261;BME280;11299;43.202;27.920;2023-05-23T09:30:12;-21361.06;;;21.61;100.00
22261;BME280;11299;43.202;27.920;2023-05-23T09:32:38;-21367.31;;;21.81;100.00
22261;BME280;11299;43.202;27.920;2023-05-23T09:35:05;-21370.41;;;21.91;100.00
22261;BME280;11299;43.202;27.920;2023-05-23T09:37:43;-21381.94;;;22.28;100.00
22261;BME280;11299;43.202;27.920;2023-05-23T09:40:13;-21346.28;;;21.13;100.00
22261;BME280;11299;43.202;27.920;2023-05-23T09:42:43;-21364.03;;;21.71;100.00
22261;BME280;11299;43.202;27.920;2023-05-23T09:45:11;-21350.47;;;21.27;100.00
22261;BME280;11299;43.202;27.920;2023-05-23T09:47:36;-21304.31;;;19.78;100.00
22261;BME280;11299;43.202;27.920;2023-05-23T09:50:03;-21350.47;;;21.27;100.00
22261;BME280;11299;43.202;27.920;2023-05-23T09:52:37;-21346.59;;;21.14;100.00
22261;BME280;11299;43.202;27.920;2023-05-23T09:55:03;-21320.25;;;20.29;100.00
22261;BME280;11299;43.202;27.920;2023-05-23T09:57:33;-21328.66;;;20.56;100.00
22261;BME280;11299;43.202;27.920;2023-05-23T10:00:03;-21315.25;;;20.13;100.00
22261;BME280;11299;43.202;27.920;2023-05-23T10:02:53;-21310.72;;;19.99;100.00
22261;BME280;11299;43.202;27.920;2023-05-23T10:05:29;-21292.00;;;19.38;100.00
22261;BME280;11299;43.202;27.920;2023-05-23T10:07:58;-21307.59;;;19.89;100.00
22261;BME280;11299;43.202;27.920;2023-05-23T10:10:25;-21300.28;;;19.65;100.00
22261;BME280;11299;43.202;27.920;2023-05-23T10:12:54;-21305.41;;;19.82;100.00
22261;BME280;11299;43.202;27.920;2023-05-23T10:15:26;-21295.28;;;19.49;100.00
22261;BME280;11299;43.202;27.920;2023-05-23T10:18:01;-21315.88;;;20.15;100.00
22261;BME280;11299;43.202;27.920;2023-05-23T10:20:30;-21308.38;;;19.91;100.00
22261;BME280;11299;43.202;27.920;2023-05-23T10:23:00;-21307.13;;;19.87;100.00
22261;BME280;11299;43.202;27.920;2023-05-23T10:25:26;-21303.06;;;19.74;100.00
22261;BME280;11299;43.202;27.920;2023-05-23T10:27:57;-21293.88;;;19.44;100.00
22261;BME280;11299;43.202;27.920;2023-05-23T10:30:27;-21270.94;;;18.70;100.00
22261;BME280;11299;43.202;27.920;2023-05-23T10:32:54;-19899.28;;;18.71;100.00
22261;BME280;11299;43.202;27.920;2023-05-23T10:44:09;-21280.59;;;19.02;100.00
22261;BME280;11299;43.202;27.920;2023-05-23T10:46:54;-11235.81;;;19.01;100.00
22261;BME280;11299;43.202;27.920;2023-05-23T10:49:37;3364.91;;;18.18;100.00
22261;BME280;11299;43.202;27.920;2023-05-23T10:52:03;14868.34;;;18.02;100.00
22261;BME280;11299;43.202;27.920;2023-05-23T10:54:34;24693.38;;;18.77;100.00
22261;BME280;11299;43.202;27.920;2023-05-23T10:57:04;31335.34;;;18.25;100.00
22261;BME280;11299;43.202;27.920;2023-05-23T10:59:29;28179.59;;;18.30;100.00
22261;BME280;11299;43.202;27.920;2023-05-23T11:01:55;22935.22;;;18.64;100.00
22261;BME280;11299;43.202;27.920;2023-05-23T11:04:25;33473.72;;;18.80;100.00
22261;BME280;11299;43.202;27.920;2023-05-23T11:06:53;40158.38;;;18.75;100.00
22261;BME280;11299;43.202;27.920;2023-05-23T11:09:19;41209.59;;;18.67;100.00
22261;BME280;11299;43.202;27.920;2023-05-23T11:12:06;47187.16;;;18.44;100.00
22261;BME280;11299;43.202;27.920;2023-05-23T11:14:50;32075.34;;;18.95;100.00
22261;BME280;11299;43.202;27.920;2023-05-23T11:17:24;33480.22;;;18.92;100.00
22261;BME280;11299;43.202;27.920;2023-05-23T11:20:06;38053.50;;;18.89;100.00
22261;BME280;11299;43.202;27.920;2023-05-23T11:22:35;40861.72;;;18.73;100.00
22261;BME280;11299;43.202;27.920;2023-05-23T11:25:06;42267.25;;;18.67;100.00
22261;BME280;11299;43.202;27.920;2023-05-23T11:27:33;48298.63;;;19.10;100.00
22261;BME280;11299;43.202;27.920;2023-05-23T11:32:29;36253.75;;;18.24;100.00
22261;BME280;11299;43.202;27.920;2023-05-23T11:34:58;41189.56;;;18.38;100.00
22261;BME280;11299;43.202;27.920;2023-05-23T11:37:24;48573.78;;;18.13;100.00
22261;BME280;11299;43.202;27.920;2023-05-23T11:39:50;48971.16;;;18.67;100.00
22261;BME280;11299;43.202;27.920;2023-05-23T11:42:15;47204.09;;;18.65;100.00
22261;BME280;11299;43.202;27.920;2023-05-23T11:44:41;53221.78;;;18.78;100.00
22261;BME280;11299;43.202;27.920;2023-05-23T11:47:06;51428.09;;;18.48;100.00
22261;BME280;11299;43.202;27.920;2023-05-23T11:49:37;34902.59;;;19.18;100.00
22261;BME280;11299;43.202;27.920;2023-05-23T11:52:03;20511.38;;;19.44;100.00
22261;BME280;11299;43.202;27.920;2023-05-23T11:54:29;22975.56;;;19.67;100.00
22261;BME280;11299;43.202;27.920;2023-05-23T11:56:55;25420.06;;;19.36;100.00
22261;BME280;11299;43.202;27.920;2023-05-23T11:59:22;15627.19;;;20.20;100.00
22261;BME280;11299;43.202;27.920;2023-05-23T12:01:50;-21264.06;;;18.48;100.00
22261;BME280;11299;43.202;27.920;2023-05-23T12:04:15;-21311.19;;;20.00;100.00
22261;BME280;11299;43.202;27.920;2023-05-23T12:06:41;-12286.00;;;19.56;100.00
22261;BME280;11299;43.202;27.920;2023-05-23T12:09:10;-9164.28;;;19.96;100.00
22261;BME280;11299;43.202;27.920;2023-05-23T12:11:38;-21326.31;;;20.49;100.00
22261;BME280;11299;43.202;27.920;2023-05-23T12:14:04;-21328.66;;;20.56;100.00
22261;BME280;11299;43.202;27.920;2023-05-23T12:16:33;-21316.81;;;20.18;100.00
22261;BME280;11299;43.202;27.920;2023-05-23T12:19:00;-21292.16;;;19.39;100.00
22261;BME280;11299;43.202;27.920;2023-05-23T12:21:31;-21292.78;;;19.41;100.00
22261;BME280;11299;43.202;27.920;2023-05-23T12:24:22;-21309.16;;;19.94;100.00
22261;BME280;11299;43.202;27.920;2023-05-23T12:29:14;-21311.50;;;20.01;100.00
22261;BME280;11299;43.202;27.920;2023-05-23T12:31:40;-21298.09;;;19.58;100.00
22261;BME280;11299;43.202;27.920;2023-05-23T12:34:06;-21315.25;;;20.13;100.00
22261;BME280;11299;43.202;27.920;2023-05-23T12:36:33;-21275.59;;;18.86;100.00
22261;BME280;11299;43.202;27.920;2023-05-23T12:39:03;-21304.47;;;19.79;100.00
22261;BME280;11299;43.202;27.920;2023-05-23T12:41:31;-21306.97;;;19.87;100.00
22261;BME280;11299;43.202;27.920;2023-05-23T12:43:58;-21314.47;;;20.11;100.00
22261;BME280;11299;43.202;27.920;2023-05-23T12:46:25;-21319.00;;;20.25;100.00
22261;BME280;11299;43.202;27.920;2023-05-23T12:48:51;-21329.13;;;20.58;100.00